createdAt,value
2022-11-07T00:02:14.367Z,12.61
2022-11-07T00:04:42.664Z,12.65
2022-11-07T00:07:29.154Z,12.70
2022-11-07T00:09:57.159Z,12.75
2022-11-07T00:12:25.141Z,12.79
2022-11-07T00:14:52.961Z,12.81
2022-11-07T00:17:20.534Z,12.84
2022-11-07T00:19:49.335Z,12.86
2022-11-07T00:22:16.795Z,12.86
2022-11-07T00:24:44.606Z,12.88
2022-11-07T00:27:12.212Z,12.88
2022-11-07T00:29:41.041Z,12.89
2022-11-07T00:32:08.506Z,12.90
2022-11-07T00:34:36.371Z,12.90
2022-11-07T00:37:03.935Z,12.92
2022-11-07T00:39:31.720Z,12.92
2022-11-07T00:41:59.193Z,12.90
2022-11-07T00:44:27.061Z,12.93
2022-11-07T00:46:54.556Z,12.93
2022-11-07T00:49:40.669Z,12.96
2022-11-07T00:52:08.195Z,12.97
2022-11-07T00:54:35.954Z,12.95
2022-11-07T00:57:03.401Z,12.94
2022-11-07T00:59:31.188Z,12.96
2022-11-07T01:01:58.852Z,12.96
2022-11-07T01:04:45.556Z,12.97
2022-11-07T01:07:13.027Z,13.00
2022-11-07T01:09:40.871Z,12.99
2022-11-07T01:12:08.388Z,13.00
2022-11-07T01:14:36.402Z,12.98
2022-11-07T01:17:03.878Z,12.94
2022-11-07T01:19:31.792Z,12.94
2022-11-07T01:21:59.292Z,12.90
2022-11-07T01:24:27.139Z,12.87
2022-11-07T01:26:54.600Z,12.80
2022-11-07T01:29:22.469Z,12.75
2022-11-07T01:31:49.960Z,12.73
2022-11-07T01:34:18.478Z,12.72
2022-11-07T01:36:46.643Z,12.73
2022-11-07T01:39:14.318Z,12.75
2022-11-07T01:41:42.552Z,12.75
2022-11-07T01:44:09.922Z,12.72
2022-11-07T01:46:44.239Z,12.67
2022-11-07T01:49:31.744Z,12.63
2022-11-07T01:52:21.293Z,12.49
2022-11-07T01:55:23.674Z,12.47
2022-11-07T01:58:01.727Z,12.49
2022-11-07T02:00:30.925Z,12.52
2022-11-07T02:03:09.778Z,12.56
2022-11-07T02:06:09.353Z,12.57
2022-11-07T02:08:40.318Z,12.60
2022-11-07T02:11:10.163Z,12.63
2022-11-07T02:13:37.868Z,12.65
2022-11-07T02:16:06.417Z,12.62
2022-11-07T02:18:37.189Z,12.60
2022-11-07T02:21:22.329Z,12.49
2022-11-07T02:24:01.498Z,12.37
2022-11-07T02:26:30.312Z,12.29
2022-11-07T02:28:59.023Z,12.30
2022-11-07T02:31:26.873Z,12.30
2022-11-07T02:33:54.282Z,12.31
2022-11-07T02:36:25.477Z,12.36
2022-11-07T02:38:58.877Z,12.39
2022-11-07T02:41:33.121Z,12.42
2022-11-07T02:44:07.525Z,12.45
2022-11-07T02:46:36.102Z,12.50
2022-11-07T02:49:03.847Z,12.54
2022-11-07T02:51:32.095Z,12.58
2022-11-07T02:53:59.692Z,12.61
2022-11-07T02:56:27.544Z,12.64
2022-11-07T02:58:55.716Z,12.65
2022-11-07T03:01:25.322Z,12.66
2022-11-07T03:03:53.129Z,12.68
2022-11-07T03:06:25.605Z,12.71
2022-11-07T03:08:53.460Z,12.74
2022-11-07T03:11:21.379Z,12.78
2022-11-07T03:13:50.604Z,12.78
2022-11-07T03:16:19.639Z,12.81
2022-11-07T03:18:47.118Z,12.81
2022-11-07T03:21:15.144Z,12.80
2022-11-07T03:23:42.770Z,12.78
2022-11-07T03:26:10.547Z,12.81
2022-11-07T03:28:38.061Z,12.80
2022-11-07T03:31:06.164Z,12.81
2022-11-07T03:33:33.709Z,12.82
2022-11-07T03:36:01.516Z,12.84
2022-11-07T03:38:29.054Z,12.85
2022-11-07T03:40:56.944Z,12.90
2022-11-07T03:43:24.468Z,12.93
2022-11-07T03:45:52.245Z,12.97
2022-11-07T03:48:19.739Z,12.98
2022-11-07T03:50:47.468Z,13.00
2022-11-07T03:53:17.292Z,12.98
2022-11-07T03:55:48.587Z,12.98
2022-11-07T03:58:16.091Z,12.97
2022-11-07T04:00:43.848Z,12.98
2022-11-07T04:03:11.362Z,13.00
2022-11-07T04:05:39.252Z,13.02
2022-11-07T04:08:07.058Z,13.03
2022-11-07T04:10:35.190Z,13.05
2022-11-07T04:13:21.595Z,13.04
2022-11-07T04:16:09.699Z,13.04
2022-11-07T04:18:40.217Z,13.04
2022-11-07T04:21:07.948Z,13.04
2022-11-07T04:23:35.417Z,13.01
2022-11-07T04:26:21.646Z,13.02
2022-11-07T04:28:49.120Z,12.98
2022-11-07T04:31:16.927Z,12.97
2022-11-07T04:33:44.620Z,12.98
2022-11-07T04:36:17.248Z,12.98
2022-11-07T04:38:45.341Z,12.99
2022-11-07T04:41:25.245Z,12.99
2022-11-07T04:43:52.780Z,13.00
2022-11-07T04:46:21.622Z,13.00
2022-11-07T04:48:49.095Z,13.01
2022-11-07T04:51:21.839Z,13.02
2022-11-07T04:53:49.314Z,13.03
2022-11-07T04:56:17.471Z,13.04
2022-11-07T04:58:45.039Z,13.03
2022-11-07T05:01:13.023Z,13.04
2022-11-07T05:03:42.247Z,13.03
2022-11-07T05:06:14.165Z,13.03
2022-11-07T05:08:41.649Z,13.02
2022-11-07T05:11:09.799Z,13.03
2022-11-07T05:13:37.271Z,13.03
2022-11-07T05:16:05.612Z,13.02
2022-11-07T05:18:33.056Z,13.03
2022-11-07T05:21:00.955Z,13.05
2022-11-07T05:23:28.659Z,13.05
2022-11-07T05:25:56.925Z,13.09
2022-11-07T05:28:36.846Z,13.11
2022-11-07T05:31:06.360Z,13.11
2022-11-07T05:33:34.100Z,13.10
2022-11-07T05:36:27.949Z,13.08
2022-11-07T05:38:55.392Z,13.07
2022-11-07T05:41:23.240Z,13.07
2022-11-07T05:43:50.723Z,13.09
2022-11-07T05:46:21.145Z,13.08
2022-11-07T05:48:50.751Z,13.08
2022-11-07T05:51:18.529Z,13.08
2022-11-07T05:53:46.793Z,13.10
2022-11-07T05:56:14.523Z,13.13
2022-11-07T05:58:41.953Z,13.14
2022-11-07T06:01:09.751Z,13.15
2022-11-07T06:03:37.204Z,13.16
2022-11-07T06:06:05.718Z,13.18
2022-11-07T06:08:33.194Z,13.21
2022-11-07T06:11:05.932Z,13.25
2022-11-07T06:13:33.478Z,13.28
2022-11-07T06:16:01.285Z,13.32
2022-11-07T06:18:28.806Z,13.37
2022-11-07T06:20:56.717Z,13.40
2022-11-07T06:23:24.220Z,13.43
2022-11-07T06:25:52.064Z,13.46
2022-11-07T06:28:23.621Z,13.49
2022-11-07T06:30:51.650Z,13.48
2022-11-07T06:33:20.210Z,13.47
2022-11-07T06:35:48.373Z,13.46
2022-11-07T06:38:16.036Z,13.42
2022-11-07T06:40:44.592Z,13.42
2022-11-07T06:43:20.294Z,13.49
2022-11-07T06:45:48.571Z,13.58
2022-11-07T06:48:16.224Z,13.63
2022-11-07T06:50:44.154Z,13.63
2022-11-07T06:53:14.473Z,13.59
2022-11-07T06:55:42.938Z,13.55
2022-11-07T06:58:10.542Z,13.48
2022-11-07T07:00:38.531Z,13.47
2022-11-07T07:03:06.310Z,13.41
2022-11-07T07:05:35.462Z,13.39
2022-11-07T07:08:06.029Z,13.40
2022-11-07T07:10:43.780Z,13.41
2022-11-07T07:13:12.318Z,13.38
2022-11-07T07:15:50.447Z,13.38
2022-11-07T07:18:20.136Z,13.37
2022-11-07T07:20:49.791Z,13.38
2022-11-07T07:23:18.646Z,13.38
2022-11-07T07:25:47.652Z,13.34
2022-11-07T07:28:15.313Z,13.35
2022-11-07T07:30:47.214Z,13.39
2022-11-07T07:33:18.465Z,13.45
2022-11-07T07:35:47.091Z,13.49
2022-11-07T07:38:14.590Z,13.52
2022-11-07T07:40:42.373Z,13.52
2022-11-07T07:43:09.770Z,13.52
2022-11-07T07:45:37.493Z,13.54
2022-11-07T07:48:05.670Z,13.53
2022-11-07T07:50:33.425Z,13.55
2022-11-07T07:53:04.804Z,13.56
2022-11-07T07:55:36.317Z,13.57
2022-11-07T07:58:03.806Z,13.59
2022-11-07T08:00:31.541Z,13.63
2022-11-07T08:03:10.384Z,13.64
2022-11-07T08:05:39.628Z,13.66
2022-11-07T08:08:08.342Z,13.67
2022-11-07T08:10:43.534Z,13.68
2022-11-07T08:13:11.157Z,13.69
2022-11-07T08:15:39.004Z,13.71
2022-11-07T08:18:06.745Z,13.71
2022-11-07T08:20:34.550Z,13.74
2022-11-07T08:23:14.553Z,13.77
2022-11-07T08:26:04.942Z,13.79
2022-11-07T08:28:35.697Z,13.79
2022-11-07T08:31:08.107Z,13.78
2022-11-07T08:33:36.188Z,13.79
2022-11-07T08:36:06.360Z,13.78
2022-11-07T08:38:36.252Z,13.80
2022-11-07T08:41:06.117Z,13.80
2022-11-07T08:43:33.534Z,13.81
2022-11-07T08:46:01.383Z,13.84
2022-11-07T08:48:28.776Z,13.86
2022-11-07T08:50:58.366Z,13.86
2022-11-07T08:53:27.182Z,13.84
2022-11-07T08:56:08.291Z,13.81
2022-11-07T08:58:37.049Z,13.80
2022-11-07T09:01:09.794Z,13.79
2022-11-07T09:03:45.938Z,13.76
2022-11-07T09:06:17.962Z,13.76
2022-11-07T09:08:45.804Z,13.76
2022-11-07T09:11:15.852Z,13.75
2022-11-07T09:13:43.638Z,13.74
2022-11-07T09:16:11.549Z,13.75
2022-11-07T09:18:39.303Z,13.74
2022-11-07T09:21:07.217Z,13.73
2022-11-07T09:23:34.671Z,13.75
2022-11-07T09:26:02.939Z,13.72
2022-11-07T09:28:30.786Z,13.73
2022-11-07T09:31:00.485Z,13.76
2022-11-07T09:33:28.194Z,13.76
2022-11-07T09:36:03.437Z,13.73
2022-11-07T09:38:31.740Z,13.73
2022-11-07T09:41:25.436Z,13.72
2022-11-07T09:44:17.448Z,13.69
2022-11-07T09:47:17.906Z,13.67
2022-11-07T09:49:53.146Z,13.67
2022-11-07T09:52:42.367Z,13.64
2022-11-07T09:55:30.090Z,13.64
2022-11-07T09:58:07.191Z,13.63
2022-11-07T10:00:34.752Z,13.63
2022-11-07T10:03:03.438Z,13.63
2022-11-07T10:05:42.652Z,13.63
2022-11-07T10:08:39.094Z,13.64
2022-11-07T10:11:34.557Z,13.67
2022-11-07T10:14:53.488Z,13.69
2022-11-07T10:17:42.992Z,13.70
2022-11-07T10:20:26.238Z,13.70
2022-11-07T10:22:59.379Z,13.68
2022-11-07T10:25:48.746Z,13.67
2022-11-07T10:28:19.994Z,13.70
2022-11-07T10:30:53.133Z,13.70
2022-11-07T10:33:53.290Z,13.72
2022-11-07T10:36:26.232Z,13.72
2022-11-07T10:38:54.780Z,13.72
2022-11-07T10:41:29.238Z,13.73
2022-11-07T10:44:12.182Z,13.72
2022-11-07T10:46:50.143Z,13.73
2022-11-07T10:49:20.703Z,13.69
2022-11-07T10:51:49.294Z,13.67
2022-11-07T10:54:31.518Z,13.70
2022-11-07T10:57:19.536Z,13.72
2022-11-07T10:59:59.700Z,13.76
2022-11-07T11:02:59.857Z,13.78
2022-11-07T11:05:46.460Z,13.81
2022-11-07T11:08:21.725Z,13.85
2022-11-07T11:10:50.489Z,13.87
2022-11-07T11:13:34.539Z,13.89
2022-11-07T11:16:27.304Z,13.92
2022-11-07T11:19:01.632Z,13.92
2022-11-07T11:21:48.012Z,13.95
2022-11-07T11:24:37.383Z,13.97
2022-11-07T11:27:18.342Z,14.00
2022-11-07T11:29:52.057Z,14.00
2022-11-07T11:32:44.430Z,13.99
2022-11-07T11:35:29.892Z,14.00
2022-11-07T11:38:24.344Z,14.01
2022-11-07T11:41:23.584Z,13.98
2022-11-07T11:44:23.359Z,14.00
2022-11-07T11:47:14.309Z,13.99
2022-11-07T11:50:00.252Z,14.00
2022-11-07T11:52:34.532Z,14.01
2022-11-07T11:55:03.129Z,14.02
2022-11-07T11:57:59.919Z,14.00
2022-11-07T12:00:27.663Z,13.98
2022-11-07T12:02:55.466Z,14.00
2022-11-07T12:05:53.879Z,13.97
2022-11-07T12:09:00.755Z,13.97
2022-11-07T12:11:52.373Z,13.97
2022-11-07T12:14:57.430Z,13.98
2022-11-07T12:17:42.330Z,13.99
2022-11-07T12:20:51.401Z,14.00
2022-11-07T12:23:21.374Z,14.01
2022-11-07T12:26:22.017Z,14.00
2022-11-07T12:29:41.327Z,13.99
2022-11-07T12:32:55.803Z,13.98
2022-11-07T12:35:59.584Z,14.00
2022-11-07T12:39:12.174Z,14.01
2022-11-07T12:42:02.903Z,14.00
2022-11-07T12:44:44.564Z,13.96
2022-11-07T12:47:31.770Z,13.94
2022-11-07T12:50:21.025Z,13.92
2022-11-07T12:53:30.004Z,13.92
2022-11-07T12:56:05.926Z,13.91
2022-11-07T12:58:51.524Z,13.89
2022-11-07T13:01:29.086Z,13.90
2022-11-07T13:04:27.066Z,13.92
2022-11-07T13:07:20.978Z,13.91
2022-11-07T13:10:14.291Z,13.88
2022-11-07T13:13:20.165Z,13.84
2022-11-07T13:16:14.118Z,13.81
2022-11-07T13:18:43.271Z,13.79
2022-11-07T13:21:10.899Z,13.81
2022-11-07T13:23:39.017Z,13.83
2022-11-07T13:26:44.675Z,13.84
2022-11-07T13:29:01.174Z,13.82
2022-11-07T13:31:38.827Z,13.82
2022-11-07T13:34:26.651Z,13.81
2022-11-07T13:37:02.033Z,13.82
2022-11-07T13:39:31.565Z,13.81
2022-11-07T13:42:00.695Z,13.83
2022-11-07T13:44:38.228Z,13.86
2022-11-07T13:47:16.026Z,13.87
2022-11-07T13:49:47.677Z,13.86
2022-11-07T13:53:09.298Z,13.83
2022-11-07T13:55:57.472Z,13.81
2022-11-07T13:58:28.589Z,13.82
2022-11-07T14:01:10.331Z,13.82
2022-11-07T14:08:45.192Z,13.79
2022-11-07T14:11:23.456Z,13.79
2022-11-07T14:13:54.192Z,13.80
2022-11-07T14:16:30.578Z,13.75
2022-11-07T14:19:07.021Z,13.70
2022-11-07T14:21:37.596Z,13.69
2022-11-07T14:24:32.653Z,13.69
2022-11-07T14:27:14.083Z,13.66
2022-11-07T14:30:00.077Z,13.68
2022-11-07T14:32:36.779Z,13.65
2022-11-07T14:35:08.958Z,13.69
2022-11-07T14:37:36.782Z,13.68
2022-11-07T14:40:06.427Z,13.65
2022-11-07T14:42:34.281Z,13.60
2022-11-07T14:45:04.294Z,13.51
2022-11-07T14:47:34.732Z,13.38
2022-11-07T14:50:04.577Z,13.38
2022-11-07T14:53:02.086Z,13.36
2022-11-07T14:55:33.561Z,13.26
2022-11-07T14:58:04.002Z,13.24
2022-11-07T15:00:33.551Z,13.18
2022-11-07T15:03:02.123Z,13.16
2022-11-07T15:05:37.065Z,13.19
2022-11-07T15:08:05.470Z,13.18
2022-11-07T15:15:33.697Z,13.08
2022-11-07T15:18:05.905Z,13.02
2022-11-07T15:20:38.369Z,13.03
2022-11-07T15:23:12.173Z,13.03
2022-11-07T15:25:51.211Z,13.05
2022-11-07T15:28:19.783Z,13.08
2022-11-07T15:30:50.480Z,12.95
2022-11-07T15:33:19.205Z,12.97
2022-11-07T15:35:54.842Z,12.96
2022-11-07T15:38:29.238Z,12.96
2022-11-07T15:40:56.800Z,12.97
2022-11-07T15:43:24.619Z,12.98
2022-11-07T15:45:53.362Z,12.98
2022-11-07T15:48:36.892Z,13.00
2022-11-07T15:51:09.517Z,12.94
2022-11-07T15:53:37.477Z,12.96
2022-11-07T15:56:15.715Z,13.00
2022-11-07T15:58:46.192Z,13.04
2022-11-07T16:01:13.875Z,13.08
2022-11-07T16:03:45.582Z,13.04
2022-11-07T16:06:31.630Z,13.02
2022-11-07T16:08:59.824Z,13.03
2022-11-07T16:11:27.472Z,13.01
2022-11-07T16:14:35.101Z,13.02
2022-11-07T16:16:49.994Z,13.02
2022-11-07T16:19:30.432Z,13.03
2022-11-07T16:21:57.918Z,12.93
2022-11-07T16:24:29.242Z,12.91
2022-11-07T16:26:57.128Z,12.89
2022-11-07T16:29:25.137Z,12.88
2022-11-07T16:31:52.603Z,12.88
2022-11-07T16:34:20.371Z,12.82
2022-11-07T16:36:50.530Z,12.69
2022-11-07T16:39:21.914Z,12.69
2022-11-07T16:41:50.548Z,12.63
2022-11-07T16:44:26.010Z,12.58
2022-11-07T16:46:56.302Z,12.62
2022-11-07T16:49:32.584Z,12.67
2022-11-07T16:52:00.293Z,12.71
2022-11-07T16:54:28.133Z,12.77
2022-11-07T16:56:56.673Z,12.84
2022-11-07T16:59:24.970Z,12.87
2022-11-07T17:01:53.617Z,12.89
2022-11-07T17:04:21.596Z,12.90
2022-11-07T17:06:49.148Z,12.95
2022-11-07T17:09:20.392Z,12.94
2022-11-07T17:11:49.060Z,12.97
2022-11-07T17:14:16.958Z,13.03
2022-11-07T17:16:48.445Z,13.05
2022-11-07T17:19:16.306Z,12.96
2022-11-07T17:21:48.461Z,12.95
2022-11-07T17:24:16.862Z,13.01
2022-11-07T17:26:44.458Z,12.91
2022-11-07T17:29:17.184Z,12.88
2022-11-07T17:31:44.791Z,12.86
2022-11-07T17:34:12.731Z,12.92
2022-11-07T17:36:47.261Z,12.88
2022-11-07T17:39:20.629Z,12.86
2022-11-07T17:41:51.712Z,12.78
2022-11-07T17:44:20.104Z,12.81
2022-11-07T17:46:51.828Z,12.82
2022-11-07T17:49:22.040Z,12.81
2022-11-07T17:51:49.620Z,12.85
2022-11-07T17:54:17.451Z,12.86
2022-11-07T17:56:45.008Z,12.89
2022-11-07T17:59:17.881Z,12.95
2022-11-07T18:01:46.059Z,12.92
2022-11-07T18:04:14.414Z,12.81
2022-11-07T18:06:43.398Z,12.78
2022-11-07T18:09:15.971Z,12.72
2022-11-07T18:11:44.150Z,12.70
2022-11-07T18:14:13.774Z,12.72
2022-11-07T18:16:41.405Z,12.76
2022-11-07T18:19:10.573Z,12.78
2022-11-07T18:21:39.002Z,12.77
2022-11-07T18:24:07.263Z,12.81
2022-11-07T18:26:38.442Z,12.84
2022-11-07T18:29:13.232Z,12.84
2022-11-07T18:31:41.487Z,12.87
2022-11-07T18:34:12.659Z,12.89
2022-11-07T18:36:43.243Z,12.92
2022-11-07T18:39:21.670Z,12.90
2022-11-07T18:41:51.788Z,12.93
2022-11-07T18:44:19.959Z,12.93
2022-11-07T18:46:48.038Z,12.93
2022-11-07T18:49:19.599Z,12.83
2022-11-07T18:51:51.891Z,12.75
2022-11-07T18:54:22.091Z,12.77
2022-11-07T18:56:49.659Z,12.76
2022-11-07T18:59:17.623Z,12.76
2022-11-07T19:01:45.304Z,12.66
2022-11-07T19:04:13.396Z,12.60
2022-11-07T19:06:56.855Z,12.56
2022-11-07T19:09:31.719Z,12.55
2022-11-07T19:12:00.887Z,12.59
2022-11-07T19:14:31.014Z,12.60
2022-11-07T19:16:58.822Z,12.61
2022-11-07T19:19:26.857Z,12.57
2022-11-07T19:21:54.386Z,12.58
2022-11-07T19:24:22.209Z,12.64
2022-11-07T19:26:56.371Z,12.66
2022-11-07T19:29:24.292Z,12.73
2022-11-07T19:31:51.943Z,12.77
2022-11-07T19:34:22.948Z,12.87
2022-11-07T19:36:50.435Z,12.79
2022-11-07T19:39:18.360Z,12.79
2022-11-07T19:41:45.870Z,12.79
2022-11-07T19:44:13.892Z,12.79
2022-11-07T19:46:41.499Z,12.76
2022-11-07T19:49:12.528Z,12.75
2022-11-07T19:51:44.288Z,12.68
2022-11-07T19:54:12.119Z,12.59
2022-11-07T19:56:39.907Z,12.62
2022-11-07T19:59:09.597Z,12.53
2022-11-07T20:01:39.393Z,12.53
2022-11-07T20:04:08.920Z,12.58
2022-11-07T20:06:38.607Z,12.67
2022-11-07T20:09:09.354Z,12.75
2022-11-07T20:11:36.970Z,12.79
2022-11-07T20:14:06.047Z,12.84
2022-11-07T20:16:36.888Z,12.91
2022-11-07T20:19:05.593Z,12.81
2022-11-07T20:21:34.510Z,12.70
2022-11-07T20:24:02.538Z,12.63
2022-11-07T20:26:31.855Z,12.57
2022-11-07T20:29:03.852Z,12.62
2022-11-07T20:31:36.739Z,12.60
2022-11-07T20:34:07.041Z,12.65
2022-11-07T20:36:35.062Z,12.58
2022-11-07T20:39:05.001Z,12.57
2022-11-07T20:41:33.028Z,12.54
2022-11-07T20:44:06.543Z,12.57
2022-11-07T20:46:36.890Z,12.60
2022-11-07T20:49:07.232Z,12.65
2022-11-07T20:51:35.154Z,12.70
2022-11-07T20:54:03.186Z,12.70
2022-11-07T20:56:30.785Z,12.69
2022-11-07T20:58:59.109Z,12.70
2022-11-07T21:01:37.313Z,12.72
2022-11-07T21:04:10.629Z,12.59
2022-11-07T21:07:29.347Z,12.47
2022-11-07T21:10:18.884Z,12.41
2022-11-07T21:13:07.848Z,12.41
2022-11-07T21:16:20.932Z,12.34
2022-11-07T21:19:56.330Z,12.34
2022-11-07T21:22:28.955Z,12.29
2022-11-07T21:25:28.069Z,12.33
2022-11-07T21:27:57.316Z,12.30
2022-11-07T21:30:31.038Z,12.31
2022-11-07T21:33:05.047Z,12.34
2022-11-07T21:35:33.693Z,12.34
2022-11-07T21:38:03.905Z,12.35
2022-11-07T21:40:31.318Z,12.36
2022-11-07T21:42:59.083Z,12.28
2022-11-07T21:45:26.714Z,12.30
2022-11-07T21:47:55.656Z,12.29
2022-11-07T21:50:43.775Z,12.37
2022-11-07T21:53:13.791Z,12.28
2022-11-07T21:55:42.836Z,12.27
2022-11-07T21:58:13.886Z,12.19
2022-11-07T22:00:41.614Z,12.12
2022-11-07T22:03:09.414Z,12.17
2022-11-07T22:05:39.214Z,12.24
2022-11-07T22:08:07.022Z,12.37
2022-11-07T22:10:34.481Z,12.37
2022-11-07T22:13:02.286Z,12.44
2022-11-07T22:15:29.730Z,12.47
2022-11-07T22:17:59.902Z,12.53
2022-11-07T22:20:27.424Z,12.52
2022-11-07T22:22:55.200Z,12.56
2022-11-07T22:25:40.923Z,12.57
2022-11-07T22:28:20.032Z,12.49
2022-11-07T22:30:50.383Z,12.47
2022-11-07T22:33:18.729Z,12.46
2022-11-07T22:35:46.637Z,12.45
2022-11-07T22:38:14.446Z,12.41
2022-11-07T22:40:46.062Z,12.43
2022-11-07T22:43:14.607Z,12.35
2022-11-07T22:45:42.573Z,12.28
2022-11-07T22:48:10.494Z,12.27
2022-11-07T22:50:38.072Z,12.31
2022-11-07T22:53:06.328Z,12.39
2022-11-07T22:55:38.702Z,12.40
2022-11-07T22:58:06.962Z,12.39
2022-11-07T23:00:34.619Z,12.36
2022-11-07T23:03:03.082Z,12.42
2022-11-07T23:06:10.913Z,12.41
2022-11-07T23:08:50.305Z,12.41
2022-11-07T23:11:45.778Z,12.34
2022-11-07T23:14:27.044Z,12.28
2022-11-07T23:16:59.022Z,12.35
2022-11-07T23:19:33.698Z,12.37
2022-11-07T23:22:08.516Z,12.26
2022-11-07T23:24:51.619Z,12.20
2022-11-07T23:27:32.440Z,12.24
2022-11-07T23:30:12.087Z,12.27
2022-11-07T23:32:45.953Z,12.22
2022-11-07T23:35:15.827Z,12.22
2022-11-07T23:37:43.265Z,12.20
2022-11-07T23:40:12.039Z,12.24
2022-11-07T23:42:39.511Z,12.23
2022-11-07T23:45:26.188Z,12.21
2022-11-07T23:48:12.013Z,12.20
2022-11-07T23:50:58.710Z,12.20
2022-11-07T23:53:44.944Z,12.06
2022-11-07T23:56:12.893Z,12.06
2022-11-07T23:58:59.159Z,12.02
